New Providence, New Jersey
Current Conditions -  °F | °C
As of 6:45 AM on Saturday 20 Dec 2014 (Local Time) from KMMU Reporting Station
Overcast Overcast  
Wind Chill: 23°   Ceiling: 2500
Heat Index: 30°   Visibility: 10mi
Dew Point: 23°   Wind: 7mph
Humidity: 75%   Direction: 320°NW
Pressure: 30.27"   Gusts: NA
Location:  40.71°N, 74.4°W
Report Text: KMMU 201145Z 32006KT 10SM OVC025 M01/M05 A3027
Loading
Personal Weather Stations






























Interactive Weather Map New forecast layout! Learn more

10-Day Weather Forecast

Advertisements
Track Severe Weather on mobile